Aguas Blancas, Argentina
Current Conditions -  °F | °C
As of 8:00 PM on Tuesday 25 Nov 2014 (Local Time) from SLYA Reporting Station
Drizzle Drizzle  
Wind Chill: 70°   Ceiling: 800
Heat Index: 70°   Visibility: 3mi
Dew Point: 68°   Wind: 7mph
Humidity: 94%   Direction: 180°S
Pressure: 29.83"   Gusts: NA
Location:  23.05°S, 64.43°W
Report Text: SLYA 252300Z 18006KT 5000 -DZ BKN008 OVC070 21/20 Q1010
Loading
Personal Weather Stations






























Interactive Weather Map New forecast layout! Learn more

10-Day Weather Forecast

Advertisements
Track Severe Weather on mobile